createdAt,value
2018-04-17T00:00:30.708Z,102083.44
2018-04-17T00:02:58.424Z,102078.17
2018-04-17T00:05:26.250Z,102082.91
2018-04-17T00:07:53.899Z,102085.20
2018-04-17T00:10:21.561Z,102083.70
2018-04-17T00:12:49.162Z,102085.61
2018-04-17T00:15:16.820Z,102086.16
2018-04-17T00:17:44.396Z,102089.11
2018-04-17T00:20:11.970Z,102090.45
2018-04-17T00:22:39.679Z,102085.73
2018-04-17T00:25:07.330Z,102086.66
2018-04-17T00:27:35.063Z,102094.77
2018-04-17T00:30:02.668Z,102096.00
2018-04-17T00:32:30.425Z,102096.25
2018-04-17T00:34:58.024Z,102096.11
2018-04-17T00:37:25.609Z,102101.09
2018-04-17T00:39:53.292Z,102100.42
2018-04-17T00:42:20.872Z,102100.80
2018-04-17T00:44:48.848Z,102105.13
2018-04-17T00:47:16.482Z,102102.96
2018-04-17T00:49:44.061Z,102099.31
2018-04-17T00:52:11.754Z,102102.52
2018-04-17T00:54:39.400Z,102099.55
2018-04-17T00:57:07.051Z,102105.47
2018-04-17T00:59:34.744Z,102103.72
2018-04-17T01:02:02.423Z,102101.80
2018-04-17T01:04:30.167Z,102106.92
2018-04-17T01:06:58.004Z,102102.48
2018-04-17T01:09:25.701Z,102103.97
2018-04-17T01:11:53.320Z,102104.34
2018-04-17T01:14:21.010Z,102106.23
2018-04-17T01:16:48.630Z,102105.80
2018-04-17T01:19:16.376Z,102103.09
2018-04-17T01:21:43.992Z,102105.92
2018-04-17T01:24:11.688Z,102106.74
2018-04-17T01:26:39.266Z,102122.13
2018-04-17T01:29:06.978Z,102118.63
2018-04-17T01:31:34.650Z,102117.55
2018-04-17T01:34:02.225Z,102120.91
2018-04-17T01:36:29.911Z,102121.73
2018-04-17T01:38:58.134Z,102121.58
2018-04-17T01:41:25.724Z,102127.38
2018-04-17T01:43:53.414Z,102124.92
2018-04-17T01:46:21.103Z,102121.11
2018-04-17T01:48:49.184Z,102119.73
2018-04-17T01:51:16.872Z,102123.67
2018-04-17T01:53:44.533Z,102119.75
2018-04-17T01:56:12.333Z,102127.95
2018-04-17T01:58:40.186Z,102124.17
2018-04-17T02:01:07.772Z,102125.37
2018-04-17T02:03:35.528Z,102133.20
2018-04-17T02:06:03.117Z,102129.14
2018-04-17T02:08:30.728Z,102123.30
2018-04-17T02:10:58.423Z,102114.63
2018-04-17T02:13:26.060Z,102123.11
2018-04-17T02:15:53.721Z,102126.05
2018-04-17T02:18:21.446Z,102126.31
2018-04-17T02:20:49.060Z,102122.66
2018-04-17T02:23:16.781Z,102129.52
2018-04-17T02:25:44.444Z,102124.34
2018-04-17T02:28:12.024Z,102131.05
2018-04-17T02:30:39.687Z,102133.41
2018-04-17T02:33:07.740Z,102137.07
2018-04-17T02:35:35.478Z,102137.56
2018-04-17T02:38:03.072Z,102144.70
2018-04-17T02:40:31.227Z,102130.52
2018-04-17T02:42:58.888Z,102132.12
2018-04-17T02:45:26.753Z,102139.26
2018-04-17T02:47:54.478Z,102140.61
2018-04-17T02:50:22.074Z,102145.20
2018-04-17T02:52:49.656Z,102139.52
2018-04-17T02:55:17.380Z,102140.45
2018-04-17T02:57:45.040Z,102144.50
2018-04-17T03:00:13.051Z,102149.08
2018-04-17T03:02:41.051Z,102143.39
2018-04-17T03:05:08.686Z,102142.85
2018-04-17T03:07:36.266Z,102140.61
2018-04-17T03:10:04.542Z,102141.23
2018-04-17T03:12:32.517Z,102143.24
2018-04-17T03:15:00.173Z,102143.22
2018-04-17T03:17:27.816Z,102145.75
2018-04-17T03:19:55.477Z,102144.66
2018-04-17T03:22:23.126Z,102143.55
2018-04-17T03:24:50.783Z,102144.58
2018-04-17T03:27:18.517Z,102146.00
2018-04-17T03:29:46.312Z,102144.66
2018-04-17T03:32:14.197Z,102151.55
2018-04-17T03:34:41.844Z,102149.63
2018-04-17T03:37:09.635Z,102152.59
2018-04-17T03:39:37.672Z,102147.16
2018-04-17T03:42:05.371Z,102151.63
2018-04-17T03:44:33.021Z,102161.62
2018-04-17T03:47:00.979Z,102164.12
2018-04-17T03:49:28.691Z,102166.27
2018-04-17T03:51:56.298Z,102171.28
2018-04-17T03:54:24.369Z,102171.03
2018-04-17T03:56:51.981Z,102176.55
2018-04-17T03:59:19.710Z,102177.64
2018-04-17T04:01:47.692Z,102174.27
2018-04-17T04:04:15.429Z,102180.37
2018-04-17T04:06:43.416Z,102184.12
2018-04-17T04:09:11.070Z,102187.88
2018-04-17T04:11:38.686Z,102184.90
2018-04-17T04:14:06.295Z,102185.03
2018-04-17T04:16:46.191Z,102183.67
2018-04-17T04:19:25.490Z,102181.81
2018-04-17T04:22:05.224Z,102187.44
2018-04-17T04:24:44.878Z,102192.95
2018-04-17T04:27:12.476Z,102196.04
2018-04-17T04:29:40.221Z,102202.11
2018-04-17T04:32:07.807Z,102197.23
2018-04-17T04:34:35.412Z,102196.84
2018-04-17T04:37:03.263Z,102202.23
2018-04-17T04:39:30.882Z,102209.49
2018-04-17T04:41:58.524Z,102211.00
2018-04-17T04:44:26.108Z,102218.03
2018-04-17T04:46:54.263Z,102226.00
2018-04-17T04:49:21.880Z,102229.50
2018-04-17T04:51:49.639Z,102237.88
2018-04-17T04:54:17.492Z,102247.36
2018-04-17T04:56:45.384Z,102240.09
2018-04-17T04:59:13.258Z,102244.02
2018-04-17T05:01:40.938Z,102246.87
2018-04-17T05:04:08.768Z,102248.39
2018-04-17T05:06:36.439Z,102256.22
2018-04-17T05:09:04.134Z,102261.66
2018-04-17T05:11:32.080Z,102271.26
2018-04-17T05:13:59.723Z,102280.86
2018-04-17T05:16:27.327Z,102284.23
2018-04-17T05:18:54.986Z,102280.90
2018-04-17T05:21:22.592Z,102286.33
2018-04-17T05:23:50.357Z,102290.92
2018-04-17T05:26:18.288Z,102307.02
2018-04-17T05:28:45.881Z,102314.80
2018-04-17T05:31:13.554Z,102317.36
2018-04-17T05:33:41.680Z,102325.88
2018-04-17T05:36:09.293Z,102325.66
2018-04-17T05:38:36.869Z,102324.59
2018-04-17T05:41:05.771Z,102316.66
2018-04-17T05:43:33.439Z,102319.27
2018-04-17T05:46:01.403Z,102326.20
2018-04-17T05:48:29.213Z,102320.58
2018-04-17T05:50:57.079Z,102326.72
2018-04-17T05:53:24.677Z,102326.68
2018-04-17T05:55:52.422Z,102328.54
2018-04-17T05:58:20.301Z,102324.19
2018-04-17T06:00:48.194Z,102326.97
2018-04-17T06:03:16.160Z,102324.84
2018-04-17T06:05:43.784Z,102321.85
2018-04-17T06:08:11.393Z,102326.39
2018-04-17T06:10:39.410Z,102328.64
2018-04-17T06:13:07.052Z,102328.46
2018-04-17T06:15:34.648Z,102325.45
2018-04-17T06:18:02.268Z,102332.05
2018-04-17T06:20:29.909Z,102330.80
2018-04-17T06:22:58.033Z,102326.01
2018-04-17T06:25:25.943Z,102334.89
2018-04-17T06:27:53.800Z,102344.98
2018-04-17T06:30:21.449Z,102350.09
2018-04-17T06:32:49.097Z,102346.62
2018-04-17T06:35:16.697Z,102343.42
2018-04-17T06:37:44.340Z,102345.09
2018-04-17T06:40:12.226Z,102343.77
2018-04-17T06:42:39.886Z,102340.77
2018-04-17T06:45:07.560Z,102346.73
2018-04-17T06:47:35.236Z,102349.02
2018-04-17T06:50:02.857Z,102343.98
2018-04-17T06:52:30.560Z,102336.89
2018-04-17T06:54:58.629Z,102346.59
2018-04-17T06:57:26.280Z,102349.95
2018-04-17T06:59:54.262Z,102350.71
2018-04-17T07:02:21.881Z,102356.48
2018-04-17T07:04:49.552Z,102353.43
2018-04-17T07:07:17.157Z,102358.81
2018-04-17T07:09:44.744Z,102363.77
2018-04-17T07:12:12.556Z,102370.61
2018-04-17T07:14:40.437Z,102370.31
2018-04-17T07:17:08.389Z,102371.97
2018-04-17T07:19:36.220Z,102377.33
2018-04-17T07:22:03.868Z,102385.02
2018-04-17T07:24:31.464Z,102384.48
2018-04-17T07:26:59.137Z,102384.36
2018-04-17T07:29:26.795Z,102385.19
2018-04-17T07:31:54.388Z,102387.36
2018-04-17T07:34:22.009Z,102388.39
2018-04-17T07:36:49.618Z,102380.85
2018-04-17T07:39:17.270Z,102389.13
2018-04-17T07:41:44.957Z,102387.19
2018-04-17T07:44:12.882Z,102399.96
2018-04-17T07:46:40.587Z,102403.66
2018-04-17T07:49:08.175Z,102403.53
2018-04-17T07:51:35.758Z,102408.85
2018-04-17T07:54:03.442Z,102402.30
2018-04-17T07:56:31.020Z,102406.56
2018-04-17T07:58:58.801Z,102402.39
2018-04-17T08:01:26.444Z,102397.66
2018-04-17T08:03:54.339Z,102405.08
2018-04-17T08:06:22.186Z,102403.25
2018-04-17T08:08:49.810Z,102403.23
2018-04-17T08:11:17.444Z,102398.47
2018-04-17T08:13:45.088Z,102400.94
2018-04-17T08:16:12.728Z,102405.98
2018-04-17T08:18:40.353Z,102408.08
2018-04-17T08:21:08.099Z,102411.75
2018-04-17T08:23:35.711Z,102417.16
2018-04-17T08:26:03.304Z,102413.86
2018-04-17T08:28:30.919Z,102408.77
2018-04-17T08:30:58.602Z,102411.28
2018-04-17T08:33:26.209Z,102404.64
2018-04-17T08:35:53.811Z,102413.16
2018-04-17T08:38:21.451Z,102409.83
2018-04-17T08:40:49.062Z,102408.16
2018-04-17T08:43:16.647Z,102408.40
2018-04-17T08:45:44.356Z,102401.78
2018-04-17T08:48:11.954Z,102402.80
2018-04-17T08:50:39.968Z,102406.79
2018-04-17T08:53:07.683Z,102407.91
2018-04-17T08:55:35.262Z,102410.99
2018-04-17T08:58:02.878Z,102411.53
2018-04-17T09:00:30.487Z,102408.86
2018-04-17T09:02:58.186Z,102410.86
2018-04-17T09:05:25.771Z,102407.56
2018-04-17T09:07:53.803Z,102412.66
2018-04-17T09:10:21.466Z,102410.17
2018-04-17T09:12:49.151Z,102416.87
2018-04-17T09:15:16.774Z,102415.09
2018-04-17T09:17:44.381Z,102415.17
2018-04-17T09:20:12.048Z,102417.74
2018-04-17T09:22:39.714Z,102419.48
2018-04-17T09:25:07.360Z,102414.00
2018-04-17T09:27:35.087Z,102413.37
2018-04-17T09:30:02.707Z,102419.64
2018-04-17T09:32:30.446Z,102409.86
2018-04-17T09:34:58.133Z,102407.62
2018-04-17T09:37:25.804Z,102407.93
2018-04-17T09:39:53.935Z,102402.73
2018-04-17T09:42:21.925Z,102402.56
2018-04-17T09:44:49.526Z,102404.40
2018-04-17T09:47:17.346Z,102397.48
2018-04-17T09:49:44.963Z,102394.66
2018-04-17T09:52:12.571Z,102404.05
2018-04-17T09:54:40.228Z,102400.26
2018-04-17T09:57:07.899Z,102401.70
2018-04-17T09:59:35.559Z,102403.09
2018-04-17T10:02:03.307Z,102399.94
2018-04-17T10:04:30.909Z,102395.42
2018-04-17T10:06:58.851Z,102397.25
2018-04-17T10:09:26.948Z,102401.29
2018-04-17T10:11:54.743Z,102400.19
2018-04-17T10:14:22.341Z,102406.16
2018-04-17T10:16:50.017Z,102410.98
2018-04-17T10:19:17.713Z,102409.45
2018-04-17T10:21:45.517Z,102410.89
2018-04-17T10:24:13.109Z,102412.59
2018-04-17T10:26:40.799Z,102401.23
2018-04-17T10:29:08.447Z,102398.42
2018-04-17T10:31:36.385Z,102401.55
2018-04-17T10:34:04.076Z,102395.00
2018-04-17T10:36:31.755Z,102398.83
2018-04-17T10:38:59.347Z,102400.93
2018-04-17T10:41:27.169Z,102402.67
2018-04-17T10:43:55.033Z,102391.86
2018-04-17T10:46:22.723Z,102395.45
2018-04-17T10:48:50.348Z,102397.08
2018-04-17T10:51:17.945Z,102397.44
2018-04-17T10:53:45.746Z,102403.33
2018-04-17T10:56:13.402Z,102397.55
2018-04-17T10:58:41.088Z,102403.70
2018-04-17T11:01:08.975Z,102396.80
2018-04-17T11:03:36.617Z,102386.43
2018-04-17T11:06:04.232Z,102384.34
2018-04-17T11:08:31.847Z,102386.88
2018-04-17T11:10:59.443Z,102383.37
2018-04-17T11:13:27.166Z,102385.05
2018-04-17T11:15:55.124Z,102380.73
2018-04-17T11:18:22.747Z,102378.80
2018-04-17T11:20:50.448Z,102377.73
2018-04-17T11:23:18.140Z,102375.00
2018-04-17T11:25:45.744Z,102379.14
2018-04-17T11:28:13.635Z,102378.08
2018-04-17T11:30:41.247Z,102374.83
2018-04-17T11:33:09.385Z,102376.34
2018-04-17T11:35:37.364Z,102380.65
2018-04-17T11:38:05.047Z,102372.72
2018-04-17T11:40:32.731Z,102377.16
2018-04-17T11:43:00.367Z,102383.91
2018-04-17T11:45:28.086Z,102383.22
2018-04-17T11:47:55.686Z,102387.28
2018-04-17T11:50:23.550Z,102383.16
2018-04-17T11:52:51.231Z,102385.64
2018-04-17T11:55:18.926Z,102384.88
2018-04-17T11:57:46.671Z,102388.95
2018-04-17T12:00:14.441Z,102386.36
2018-04-17T12:02:42.068Z,102384.47
2018-04-17T12:05:09.754Z,102389.05
2018-04-17T12:07:37.489Z,102384.66
2018-04-17T12:10:05.101Z,102386.41
2018-04-17T12:12:32.778Z,102367.70
2018-04-17T12:15:00.538Z,102358.87
2018-04-17T12:17:28.223Z,102356.45
2018-04-17T12:19:56.290Z,102357.40
2018-04-17T12:22:24.092Z,102368.42
2018-04-17T12:24:51.792Z,102357.55
2018-04-17T12:27:19.473Z,102366.34
2018-04-17T12:29:47.214Z,102376.66
2018-04-17T12:32:14.826Z,102382.02
2018-04-17T12:34:42.674Z,102377.12
2018-04-17T12:37:10.351Z,102367.95
2018-04-17T12:39:38.046Z,102380.22
2018-04-17T12:42:05.969Z,102377.98
2018-04-17T12:44:33.820Z,102369.92
2018-04-17T12:47:01.409Z,102379.09
2018-04-17T12:49:28.995Z,102371.59
2018-04-17T12:51:57.015Z,102380.89
2018-04-17T12:54:24.705Z,102377.59
2018-04-17T12:56:52.772Z,102374.66
2018-04-17T12:59:20.892Z,102371.46
2018-04-17T13:01:48.495Z,102371.62
2018-04-17T13:04:16.113Z,102375.98
2018-04-17T13:06:43.807Z,102382.34
2018-04-17T13:09:11.447Z,102376.45
2018-04-17T13:11:39.150Z,102370.94
2018-04-17T13:14:06.808Z,102369.63
2018-04-17T13:16:34.437Z,102373.97
2018-04-17T13:19:02.348Z,102358.69
2018-04-17T13:21:30.109Z,102354.48
2018-04-17T13:23:57.723Z,102358.34
2018-04-17T13:26:25.315Z,102355.44
2018-04-17T13:28:52.950Z,102353.80
2018-04-17T13:31:20.547Z,102350.55
2018-04-17T13:33:48.165Z,102344.77
2018-04-17T13:36:15.876Z,102347.21
2018-04-17T13:38:43.531Z,102343.46
2018-04-17T13:41:11.238Z,102342.63
2018-04-17T13:43:38.902Z,102352.27
2018-04-17T13:46:06.612Z,102349.44
2018-04-17T13:48:34.308Z,102345.02
2018-04-17T13:51:01.991Z,102349.19
2018-04-17T13:53:29.682Z,102340.72
2018-04-17T13:55:57.339Z,102330.48
2018-04-17T13:58:25.057Z,102340.70
2018-04-17T14:00:52.741Z,102339.81
2018-04-17T14:03:20.417Z,102342.20
2018-04-17T14:05:48.083Z,102340.86
2018-04-17T14:08:15.704Z,102346.48
2018-04-17T14:10:43.651Z,102346.77
2018-04-17T14:13:11.263Z,102351.87
2018-04-17T14:15:38.872Z,102354.31
2018-04-17T14:18:07.026Z,102363.38
2018-04-17T14:20:34.623Z,102359.13
2018-04-17T14:23:02.386Z,102355.06
2018-04-17T14:25:30.100Z,102358.44
2018-04-17T14:27:57.708Z,102358.36
2018-04-17T14:30:25.372Z,102363.98
2018-04-17T14:32:52.992Z,102365.39
2018-04-17T14:35:20.895Z,102372.13
2018-04-17T14:37:48.577Z,102377.66
2018-04-17T14:40:16.175Z,102376.81
2018-04-17T14:42:44.086Z,102379.37
2018-04-17T14:45:11.686Z,102374.28
2018-04-17T14:47:39.783Z,102373.69
2018-04-17T14:50:07.464Z,102377.75
2018-04-17T14:52:35.196Z,102369.82
2018-04-17T14:55:03.008Z,102369.32
2018-04-17T14:57:30.652Z,102369.29
2018-04-17T14:59:58.317Z,102367.48
2018-04-17T15:02:26.184Z,102369.19
2018-04-17T15:04:53.839Z,102370.61
2018-04-17T15:07:21.498Z,102362.61
2018-04-17T15:09:49.294Z,102352.64
2018-04-17T15:12:17.021Z,102367.30
2018-04-17T15:14:44.641Z,102366.38
2018-04-17T15:17:12.232Z,102366.60
2018-04-17T15:19:40.293Z,102364.69
2018-04-17T15:22:08.087Z,102360.95
2018-04-17T15:24:35.694Z,102358.52
2018-04-17T15:27:03.406Z,102365.15
2018-04-17T15:29:31.053Z,102370.13
2018-04-17T15:31:58.711Z,102375.70
2018-04-17T15:34:26.412Z,102386.39
2018-04-17T15:36:53.995Z,102382.97
2018-04-17T15:39:22.019Z,102390.42
2018-04-17T15:41:49.697Z,102392.45
2018-04-17T15:44:17.308Z,102390.94
2018-04-17T15:46:45.412Z,102397.22
2018-04-17T15:49:13.177Z,102391.08
2018-04-17T15:51:40.758Z,102394.22
2018-04-17T15:54:08.387Z,102397.31
2018-04-17T15:56:35.998Z,102394.88
2018-04-17T15:59:03.728Z,102402.55
2018-04-17T16:01:31.401Z,102408.17
2018-04-17T16:03:59.417Z,102410.81
2018-04-17T16:06:27.187Z,102408.19
2018-04-17T16:08:54.844Z,102409.14
2018-04-17T16:11:23.140Z,102398.73
2018-04-17T16:13:50.743Z,102391.76
2018-04-17T16:16:18.423Z,102402.76
2018-04-17T16:18:46.044Z,102406.13
2018-04-17T16:21:13.736Z,102402.84
2018-04-17T16:23:42.134Z,102408.64
2018-04-17T16:26:09.847Z,102403.91
2018-04-17T16:28:37.443Z,102409.09
2018-04-17T16:31:05.161Z,102408.09
2018-04-17T16:33:33.336Z,102411.91
2018-04-17T16:36:00.979Z,102407.55
2018-04-17T16:38:28.734Z,102400.14
2018-04-17T16:40:56.483Z,102403.39
2018-04-17T16:43:24.084Z,102402.36
2018-04-17T16:45:51.895Z,102401.02
2018-04-17T16:48:19.660Z,102390.78
2018-04-17T16:50:47.250Z,102395.83
2018-04-17T16:53:15.068Z,102395.85
2018-04-17T16:55:42.695Z,102395.27
2018-04-17T16:58:10.377Z,102399.42
2018-04-17T17:00:38.018Z,102394.62
2018-04-17T17:03:05.760Z,102403.33
2018-04-17T17:05:33.451Z,102403.88
2018-04-17T17:08:01.175Z,102408.92
2018-04-17T17:10:29.076Z,102417.05
2018-04-17T17:12:56.715Z,102404.62
2018-04-17T17:15:24.559Z,102399.07
2018-04-17T17:17:52.222Z,102405.19
2018-04-17T17:20:19.931Z,102404.13
2018-04-17T17:22:47.989Z,102404.81
2018-04-17T17:25:15.595Z,102402.41
2018-04-17T17:27:43.229Z,102402.05
2018-04-17T17:30:10.907Z,102406.63
2018-04-17T17:32:38.694Z,102403.86
2018-04-17T17:35:06.334Z,102406.72
2018-04-17T17:37:34.200Z,102398.91
2018-04-17T17:40:01.825Z,102399.41
2018-04-17T17:42:29.477Z,102399.53
2018-04-17T17:44:57.274Z,102399.70
2018-04-17T17:47:25.001Z,102397.40
2018-04-17T17:49:52.986Z,102401.98
2018-04-17T17:52:20.654Z,102400.02
2018-04-17T17:54:48.250Z,102412.59
2018-04-17T17:57:16.177Z,102413.28
2018-04-17T17:59:43.914Z,102412.64
2018-04-17T18:02:11.542Z,102412.10
2018-04-17T18:04:39.276Z,102420.28
2018-04-17T18:07:06.972Z,102428.67
2018-04-17T18:09:34.583Z,102420.98
2018-04-17T18:12:02.208Z,102426.75
2018-04-17T18:14:29.799Z,102426.79
2018-04-17T18:16:57.674Z,102433.31
2018-04-17T18:19:25.301Z,102430.03
2018-04-17T18:21:52.927Z,102439.69
2018-04-17T18:24:20.871Z,102437.75
2018-04-17T18:26:48.611Z,102442.25
2018-04-17T18:29:16.210Z,102441.05
2018-04-17T18:31:43.872Z,102443.66
2018-04-17T18:34:11.908Z,102443.48
2018-04-17T18:36:39.491Z,102448.22
2018-04-17T18:39:07.474Z,102453.11
2018-04-17T18:41:35.250Z,102468.25
2018-04-17T18:44:02.867Z,102464.64
2018-04-17T18:46:30.516Z,102472.38
2018-04-17T18:48:58.249Z,102479.72
2018-04-17T18:51:25.953Z,102482.58
2018-04-17T18:53:53.663Z,102486.10
2018-04-17T18:56:21.277Z,102484.66
2018-04-17T18:58:49.371Z,102490.44
2018-04-17T19:01:16.962Z,102492.67
2018-04-17T19:03:44.624Z,102496.61
2018-04-17T19:06:12.252Z,102501.00
2018-04-17T19:08:39.936Z,102502.39
2018-04-17T19:11:07.569Z,102497.34
2018-04-17T19:13:35.223Z,102502.24
2018-04-17T19:16:02.843Z,102490.14
2018-04-17T19:18:30.525Z,102495.06
2018-04-17T19:20:58.231Z,102507.73
2018-04-17T19:23:25.915Z,102500.52
2018-04-17T19:25:53.547Z,102511.84
2018-04-17T19:28:21.224Z,102510.70
2018-04-17T19:30:49.041Z,102508.27
2018-04-17T19:33:16.691Z,102514.67
2018-04-17T19:35:44.614Z,102519.03
2018-04-17T19:38:12.246Z,102523.96
2018-04-17T19:40:39.903Z,102528.31
2018-04-17T19:43:07.554Z,102527.54
2018-04-17T19:45:35.167Z,102527.12
2018-04-17T19:48:02.800Z,102533.80
2018-04-17T19:50:30.512Z,102529.83
2018-04-17T19:52:58.103Z,102535.13
2018-04-17T19:55:25.761Z,102526.30
2018-04-17T19:57:53.470Z,102526.77
2018-04-17T20:00:22.054Z,102524.48
2018-04-17T20:02:49.709Z,102525.60
2018-04-17T20:05:17.445Z,102518.36
2018-04-17T20:07:45.943Z,102527.79
2018-04-17T20:10:13.567Z,102524.67
2018-04-17T20:12:41.508Z,102531.05
2018-04-17T20:15:09.169Z,102527.77
2018-04-17T20:17:36.821Z,102528.05
2018-04-17T20:20:04.501Z,102535.99
2018-04-17T20:22:32.152Z,102534.23
2018-04-17T20:24:59.740Z,102541.94
2018-04-17T20:27:27.397Z,102540.17
2018-04-17T20:29:55.019Z,102541.97
2018-04-17T20:32:22.617Z,102541.25
2018-04-17T20:34:50.240Z,102544.91
2018-04-17T20:37:17.929Z,102539.55
2018-04-17T20:39:45.671Z,102541.70
2018-04-17T20:42:13.392Z,102547.24
2018-04-17T20:44:41.187Z,102551.97
2018-04-17T20:47:08.810Z,102552.72
2018-04-17T20:49:36.493Z,102551.30
2018-04-17T20:52:04.429Z,102554.66
2018-04-17T20:54:32.123Z,102552.38
2018-04-17T20:56:59.855Z,102560.50
2018-04-17T20:59:27.530Z,102565.87
2018-04-17T21:01:55.194Z,102568.48
2018-04-17T21:04:22.821Z,102566.06
2018-04-17T21:06:50.783Z,102575.31
2018-04-17T21:09:18.653Z,102573.73
2018-04-17T21:11:46.321Z,102576.30
2018-04-17T21:14:13.910Z,102580.69
2018-04-17T21:16:41.569Z,102578.53
2018-04-17T21:19:09.603Z,102586.30
2018-04-17T21:21:37.579Z,102588.82
2018-04-17T21:24:05.180Z,102594.53
2018-04-17T21:26:33.098Z,102588.09
2018-04-17T21:29:00.754Z,102590.66
2018-04-17T21:31:28.688Z,102594.92
2018-04-17T21:33:56.531Z,102594.02
2018-04-17T21:36:24.178Z,102602.03
2018-04-17T21:38:52.081Z,102608.95
2018-04-17T21:41:19.830Z,102607.44
2018-04-17T21:43:47.765Z,102614.69
2018-04-17T21:46:15.436Z,102614.27
2018-04-17T21:48:43.049Z,102614.19
2018-04-17T21:51:10.724Z,102610.43
2018-04-17T21:53:38.402Z,102610.91
2018-04-17T21:56:05.995Z,102613.16
2018-04-17T21:58:34.118Z,102616.22
2018-04-17T22:01:02.081Z,102622.59
2018-04-17T22:03:29.836Z,102614.58
2018-04-17T22:05:57.677Z,102610.69
2018-04-17T22:08:25.413Z,102616.11
2018-04-17T22:10:53.434Z,102624.22
2018-04-17T22:13:21.115Z,102619.23
2018-04-17T22:15:49.016Z,102620.66
2018-04-17T22:18:16.853Z,102621.55
2018-04-17T22:20:44.584Z,102619.00
2018-04-17T22:23:12.374Z,102625.88
2018-04-17T22:25:40.126Z,102625.94
2018-04-17T22:28:07.801Z,102622.47
2018-04-17T22:30:35.628Z,102632.20
2018-04-17T22:33:03.280Z,102629.52
2018-04-17T22:35:31.134Z,102625.45
2018-04-17T22:37:58.776Z,102629.87
2018-04-17T22:40:26.460Z,102634.55
2018-04-17T22:42:54.240Z,102644.58
2018-04-17T22:45:21.993Z,102645.13
2018-04-17T22:47:49.863Z,102644.65
2018-04-17T22:50:17.601Z,102650.81
2018-04-17T22:52:45.352Z,102651.40
2018-04-17T22:55:13.006Z,102663.31
2018-04-17T22:57:40.796Z,102662.16
2018-04-17T23:00:08.591Z,102661.50
2018-04-17T23:02:37.008Z,102666.61
2018-04-17T23:05:04.696Z,102671.13
2018-04-17T23:07:32.409Z,102673.95
2018-04-17T23:10:00.691Z,102668.66
2018-04-17T23:12:28.296Z,102670.72
2018-04-17T23:14:55.888Z,102671.58
2018-04-17T23:17:23.495Z,102669.81
2018-04-17T23:19:51.527Z,102676.66
2018-04-17T23:22:19.203Z,102674.23
2018-04-17T23:24:47.149Z,102672.72
2018-04-17T23:27:14.938Z,102668.01
2018-04-17T23:29:42.626Z,102669.67
2018-04-17T23:32:10.713Z,102677.73
2018-04-17T23:34:38.352Z,102678.05
2018-04-17T23:37:06.082Z,102678.76
2018-04-17T23:39:33.916Z,102674.69
2018-04-17T23:42:02.009Z,102680.15
2018-04-17T23:44:29.712Z,102687.65
2018-04-17T23:46:57.492Z,102680.47
2018-04-17T23:49:25.198Z,102691.09
2018-04-17T23:51:53.146Z,102692.20
2018-04-17T23:54:20.753Z,102693.58
2018-04-17T23:56:48.377Z,102701.90
2018-04-17T23:59:16.375Z,102702.34
